Time;durP1;ratioP1;P1;durP2;ratioP2;P2;SDS_P1;SDS_P2;PMS_P1;PMS_P2;Temp;Humidity;BMP_temperature;BMP_pressure;BME280_temperature;BME280_humidity;BME280_pressure;Samples;Min_cycle;Max_cycle;Signal;HPM_P1;HPM_P2
2022/08/29 00:02:15;;;;;;;24.25;15.40;;;;;;;20.54;60.58;99105.96;1757248;81;21023;-45
2022/08/29 00:04:42;;;;;;;24.18;15.83;;;;;;;20.59;60.62;99114.48;1757023;81;20992;-45
2022/08/29 00:07:10;;;;;;;21.40;15.63;;;;;;;20.67;61.16;99108.20;1757032;81;21032;-45
2022/08/29 00:09:37;;;;;;;26.07;16.60;;;;;;;20.71;61.51;99112.41;1757128;81;21519;-44
2022/08/29 00:12:05;;;;;;;28.15;17.37;;;;;;;20.76;61.42;99109.13;1756953;81;21087;-45
2022/08/29 00:14:32;;;;;;;26.35;17.48;;;;;;;20.80;61.73;99106.27;1757032;81;20898;-45
2022/08/29 00:16:59;;;;;;;23.12;16.00;;;;;;;20.85;62.04;99111.86;1757104;81;21028;-44
2022/08/29 00:19:27;;;;;;;25.43;16.70;;;;;;;20.86;62.06;99105.92;1757159;81;21013;-45
2022/08/29 00:21:54;;;;;;;23.40;15.50;;;;;;;20.79;60.93;99106.88;1757099;81;21132;-44
2022/08/29 00:24:21;;;;;;;22.67;16.80;;;;;;;20.68;60.79;99108.34;1757275;81;20930;-44
2022/08/29 00:26:49;;;;;;;30.97;18.90;;;;;;;20.59;60.89;99112.33;1756926;81;20974;-45
2022/08/29 00:29:16;;;;;;;25.12;18.70;;;;;;;20.49;60.87;99111.39;1757224;81;21606;-45
2022/08/29 00:31:45;;;;;;;28.52;18.50;;;;;;;20.32;60.90;99106.52;1757354;81;21036;-45
2022/08/29 00:34:12;;;;;;;23.42;16.45;;;;;;;20.27;61.77;99109.76;1757352;81;21148;-45
2022/08/29 00:36:39;;;;;;;22.02;15.18;;;;;;;20.25;61.57;99106.65;1757485;81;21013;-44
2022/08/29 00:39:06;;;;;;;21.42;16.07;;;;;;;20.28;61.58;99103.65;1756969;81;21598;-44
2022/08/29 00:41:33;;;;;;;26.60;18.20;;;;;;;20.28;61.69;99101.64;1756962;81;21021;-44
2022/08/29 00:44:01;;;;;;;26.15;16.87;;;;;;;20.23;61.95;99103.56;1757048;81;21008;-44
2022/08/29 00:46:49;;;;;;;26.42;16.10;;;;;;;20.23;61.82;99098.66;1757036;81;21083;-45
2022/08/29 00:49:39;;;;;;;30.57;16.30;;;;;;;20.22;61.71;99097.88;1757121;81;21004;-44
2022/08/29 00:52:15;;;;;;;20.82;15.48;;;;;;;20.16;61.84;99102.34;1756739;81;21494;-45
2022/08/29 00:54:44;;;;;;;22.70;15.65;;;;;;;20.06;62.26;99098.47;1756717;81;21008;-44
2022/08/29 00:57:11;;;;;;;23.67;14.23;;;;;;;20.04;62.44;99100.30;1756818;81;21009;-45
2022/08/29 00:59:38;;;;;;;22.27;15.00;;;;;;;20.08;62.42;99110.61;1756762;81;21195;-44
2022/08/29 01:02:06;;;;;;;24.18;16.07;;;;;;;20.07;62.63;99108.28;1756787;81;20961;-44
2022/08/29 01:04:33;;;;;;;20.50;13.80;;;;;;;20.06;62.51;99103.97;1757112;81;21010;-44
2022/08/29 01:07:00;;;;;;;22.70;13.58;;;;;;;20.07;62.66;99093.92;1756488;81;21017;-45
2022/08/29 01:09:27;;;;;;;22.20;14.70;;;;;;;20.11;62.38;99098.73;1756796;81;21002;-44
2022/08/29 01:14:54;;;;;;;29.42;15.68;;;;;;;20.09;62.68;99108.01;1756730;81;20941;-44
2022/08/29 01:17:29;;;;;;;22.50;14.20;;;;;;;20.04;62.58;99104.42;1756817;81;20957;-45
2022/08/29 01:20:31;;;;;;;22.75;15.70;;;;;;;20.02;62.53;99101.31;1757144;81;21033;-44
2022/08/29 01:23:18;;;;;;;19.05;13.53;;;;;;;20.01;62.58;99099.76;1756576;81;21010;-44
2022/08/29 01:25:47;;;;;;;23.05;14.30;;;;;;;19.97;62.63;99101.83;1749411;81;21144;-44
2022/08/29 01:28:27;;;;;;;;;;;;;;;19.95;62.69;99104.22;1754396;81;21516;-44
2022/08/29 01:31:05;;;;;;;23.32;15.70;;;;;;;19.92;62.74;99102.33;1751767;81;20180;-44
2022/08/29 01:33:45;;;;;;;19.32;14.58;;;;;;;19.77;62.96;99103.85;1751064;82;20918;-44
2022/08/29 01:36:16;;;;;;;24.82;15.32;;;;;;;19.73;63.03;99108.06;1751894;82;21008;-44
2022/08/29 01:38:43;;;;;;;23.55;16.15;;;;;;;19.69;62.99;99103.25;1751541;82;21271;-44
2022/08/29 01:41:11;;;;;;;22.00;15.75;;;;;;;19.64;62.98;99103.75;1751513;82;21478;-44
2022/08/29 01:43:45;;;;;;;23.60;15.58;;;;;;;19.56;62.87;99103.71;1751498;82;20975;-44
2022/08/29 01:46:15;;;;;;;24.43;15.48;;;;;;;19.49;62.97;99100.53;1751707;82;20890;-45
2022/08/29 01:48:44;;;;;;;22.90;14.40;;;;;;;19.43;63.06;99096.70;1714022;83;20882;-45
2022/08/29 01:51:11;;;;;;;22.62;14.73;;;;;;;19.40;63.08;99092.06;1751287;82;21132;-45
2022/08/29 01:53:40;;;;;;;18.98;14.20;;;;;;;19.44;63.06;99096.91;1751370;82;20960;-44
2022/08/29 01:56:19;;;;;;;25.82;14.70;;;;;;;19.50;62.97;99091.69;1751500;82;21029;-44
2022/08/29 01:58:47;;;;;;;;;;;;;;;19.53;62.89;99093.58;1754032;82;21518;-45
2022/08/29 02:01:16;;;;;;;24.75;15.63;;;;;;;19.51;62.71;99091.84;1751601;82;20512;-44
2022/08/29 02:03:44;;;;;;;23.22;15.68;;;;;;;19.37;62.95;99087.98;1751744;82;21234;-45
2022/08/29 02:06:11;;;;;;;24.12;16.17;;;;;;;19.36;62.90;99091.96;1751183;82;21507;-45
2022/08/29 02:08:39;;;;;;;27.67;16.23;;;;;;;19.36;63.03;99092.73;1751465;82;21629;-45
2022/08/29 02:11:10;;;;;;;24.02;16.02;;;;;;;19.38;62.91;99099.16;1751595;82;21028;-44
2022/08/29 02:13:44;;;;;;;24.92;15.75;;;;;;;19.30;63.16;99097.18;1741259;82;21060;-44
2022/08/29 02:16:11;;;;;;;27.62;16.62;;;;;;;19.27;63.26;99104.88;1721629;83;21555;-44
2022/08/29 02:18:41;;;;;;;25.55;16.12;;;;;;;19.25;63.13;99101.80;1721677;83;21011;-44
2022/08/29 02:21:08;;;;;;;23.85;16.12;;;;;;;19.21;63.10;99101.09;1721697;83;21008;-44
2022/08/29 02:23:36;;;;;;;24.30;15.88;;;;;;;19.18;63.07;99101.92;1721775;83;21578;-44
2022/08/29 02:26:04;;;;;;;25.97;17.75;;;;;;;19.15;63.23;99106.91;1721545;83;21088;-44
2022/08/29 02:28:34;;;;;;;24.67;17.15;;;;;;;19.09;63.21;99098.97;1726457;83;21131;-44
2022/08/29 02:31:01;;;;;;;26.37;17.73;;;;;;;19.01;63.43;99093.45;1727081;82;21029;-45
2022/08/29 02:33:30;;;;;;;25.27;17.65;;;;;;;19.00;63.40;99100.13;1726865;82;21274;-44
2022/08/29 02:35:58;;;;;;;27.87;17.20;;;;;;;18.92;63.48;99105.59;1726810;82;21077;-44
2022/08/29 02:38:25;;;;;;;25.72;16.75;;;;;;;18.86;63.67;99107.27;1727122;82;21539;-44
2022/08/29 02:40:52;;;;;;;28.23;17.25;;;;;;;18.85;63.67;99102.37;1726678;83;21197;-44
2022/08/29 02:43:20;;;;;;;26.75;16.93;;;;;;;18.84;63.63;99109.05;1726555;83;20989;-44
2022/08/29 02:45:47;;;;;;;29.25;18.02;;;;;;;18.85;63.83;99108.46;1726507;83;20981;-45
2022/08/29 02:48:14;;;;;;;25.37;17.45;;;;;;;18.79;63.86;99106.02;1726478;83;21349;-45
2022/08/29 02:50:47;;;;;;;25.75;19.75;;;;;;;18.74;63.92;99106.50;1726648;83;21041;-44
2022/08/29 02:53:17;;;;;;;28.90;18.62;;;;;;;18.68;63.84;99107.61;1726539;83;21242;-44
2022/08/29 02:55:46;;;;;;;30.85;19.20;;;;;;;18.60;63.97;99111.06;1721568;83;21515;-45
2022/08/29 02:58:13;;;;;;;28.70;19.25;;;;;;;18.53;63.98;99107.08;1726591;82;21019;-45
2022/08/29 03:00:41;;;;;;;26.65;18.37;;;;;;;18.48;64.10;99104.78;1726723;83;21216;-44
2022/08/29 03:03:08;;;;;;;26.57;18.10;;;;;;;18.41;64.23;99104.11;1726594;83;21033;-44
2022/08/29 03:05:36;;;;;;;27.67;16.42;;;;;;;18.35;64.55;99109.30;1744568;81;21081;-44
2022/08/29 03:08:09;;;;;;;23.65;16.50;;;;;;;18.42;64.74;99102.33;1756696;81;20882;-44
2022/08/29 03:10:36;;;;;;;24.37;16.45;;;;;;;18.48;64.74;99106.16;1756989;81;21025;-45
2022/08/29 03:13:04;;;;;;;24.02;15.30;;;;;;;18.46;64.89;99110.50;1756572;81;20998;-44
2022/08/29 03:15:31;;;;;;;21.70;14.47;;;;;;;18.47;65.08;99105.97;1756785;81;21080;-44
2022/08/29 03:17:58;;;;;;;23.55;13.85;;;;;;;18.52;65.07;99104.72;1756514;81;21226;-44
2022/08/29 03:20:25;;;;;;;24.65;15.80;;;;;;;18.56;65.09;99110.34;1756137;81;20977;-44
2022/08/29 03:22:53;;;;;;;22.52;14.00;;;;;;;18.57;65.11;99116.03;1756678;81;20961;-44
2022/08/29 03:25:20;;;;;;;18.52;13.03;;;;;;;18.59;65.01;99112.25;1756422;81;21421;-44
2022/08/29 03:27:47;;;;;;;21.52;13.30;;;;;;;18.68;65.04;99108.20;1756770;81;21080;-45
2022/08/29 03:30:16;;;;;;;20.48;13.60;;;;;;;18.79;65.05;99109.54;1757086;81;21235;-44
2022/08/29 03:32:42;;;;;;;21.33;13.40;;;;;;;18.83;65.01;99106.12;1757102;81;20906;-45
2022/08/29 03:35:10;;;;;;;21.90;14.43;;;;;;;18.89;64.89;99098.95;1757065;81;21933;-44
2022/08/29 03:37:37;;;;;;;19.75;14.35;;;;;;;18.95;64.79;99104.74;1756825;81;21583;-44
2022/08/29 03:40:06;;;;;;;21.45;14.53;;;;;;;18.99;64.70;99099.95;1756889;81;20982;-44
2022/08/29 03:42:33;;;;;;;21.02;13.60;;;;;;;19.00;64.64;99105.62;1757282;81;21089;-45
2022/08/29 03:45:04;;;;;;;19.05;12.75;;;;;;;18.96;64.71;99104.92;1751382;81;21023;-45
2022/08/29 03:47:31;;;;;;;20.10;12.65;;;;;;;18.96;64.71;99109.05;1757103;81;21033;-44
2022/08/29 03:49:58;;;;;;;20.68;13.95;;;;;;;18.98;64.80;99114.88;1756763;81;21017;-45
2022/08/29 03:52:25;;;;;;;20.62;13.83;;;;;;;18.92;64.86;99115.98;1756731;81;21010;-44
2022/08/29 03:54:53;;;;;;;23.02;14.58;;;;;;;18.84;65.00;99117.89;1756574;81;21068;-44
2022/08/29 03:57:20;;;;;;;24.40;13.80;;;;;;;18.72;65.35;99122.05;1756623;81;20968;-44
2022/08/29 03:59:47;;;;;;;24.55;13.60;;;;;;;18.60;65.65;99119.89;1756520;81;21045;-44
2022/08/29 04:02:16;;;;;;;25.12;15.00;;;;;;;18.57;65.72;99120.73;1756788;81;21028;-45
2022/08/29 04:07:30;;;;;;;20.60;14.05;;;;;;;18.54;65.97;99119.59;1756767;81;21238;-44
2022/08/29 04:09:58;;;;;;;19.10;13.32;;;;;;;18.53;65.95;99117.25;1692354;81;21090;-45
2022/08/29 04:12:25;;;;;;;20.12;14.15;;;;;;;18.52;66.09;99113.73;1756808;81;21001;-45
2022/08/29 04:14:52;;;;;;;21.30;14.40;;;;;;;18.52;66.24;99110.98;1756862;81;20930;-45
2022/08/29 04:17:19;;;;;;;21.23;13.85;;;;;;;18.49;66.40;99109.05;1756782;81;21084;-45
2022/08/29 04:19:46;;;;;;;20.00;14.78;;;;;;;18.53;66.49;99115.31;1756963;81;21139;-45
2022/08/29 04:22:14;;;;;;;19.10;13.28;;;;;;;18.57;66.57;99117.99;1756769;81;21001;-45
2022/08/29 04:24:41;;;;;;;18.02;13.05;;;;;;;18.63;66.62;99119.84;1756741;81;21000;-45
2022/08/29 04:27:08;;;;;;;22.77;13.90;;;;;;;18.75;66.57;99128.66;1756709;81;21629;-45
2022/08/29 04:29:37;;;;;;;24.27;13.80;;;;;;;18.82;66.57;99126.57;1756831;81;21440;-45
2022/08/29 04:32:04;;;;;;;23.92;15.05;;;;;;;18.87;66.59;99125.31;1757072;81;21227;-45
2022/08/29 04:34:31;;;;;;;19.60;13.40;;;;;;;18.93;66.46;99126.35;1756874;81;21005;-44
2022/08/29 04:36:59;;;;;;;20.45;14.13;;;;;;;18.96;66.46;99129.65;1756954;81;21036;-45
2022/08/29 04:39:26;;;;;;;22.15;14.55;;;;;;;18.97;66.43;99125.71;1757115;81;21084;-45
2022/08/29 04:41:53;;;;;;;20.80;13.72;;;;;;;18.96;66.50;99122.78;1756716;81;21020;-45
2022/08/29 04:44:20;;;;;;;18.82;13.58;;;;;;;18.99;66.44;99127.42;1757115;81;21909;-45
2022/08/29 04:46:47;;;;;;;25.62;15.03;;;;;;;19.05;66.25;99131.24;1756551;81;21021;-45
2022/08/29 04:49:14;;;;;;;25.30;14.78;;;;;;;19.13;66.15;99130.49;1756862;81;21076;-45
2022/08/29 04:51:41;;;;;;;27.50;17.92;;;;;;;19.15;66.10;99130.27;1756873;81;20985;-45
2022/08/29 04:54:08;;;;;;;28.40;19.48;;;;;;;19.20;65.85;99127.62;1756767;81;21041;-45
2022/08/29 04:56:37;;;;;;;29.50;20.97;;;;;;;19.23;64.87;99139.13;1756906;81;21199;-45
2022/08/29 04:59:03;;;;;;;25.75;18.73;;;;;;;19.26;64.53;99128.69;1756759;81;20970;-45
2022/08/29 05:01:30;;;;;;;28.02;17.75;;;;;;;19.30;64.30;99130.76;1756760;81;21063;-45
2022/08/29 05:03:59;;;;;;;25.17;16.40;;;;;;;19.38;63.65;99130.19;1756699;81;21004;-45
2022/08/29 05:06:27;;;;;;;26.57;16.00;;;;;;;19.51;63.57;99126.98;1756859;81;21056;-45
2022/08/29 05:08:54;;;;;;;32.65;17.02;;;;;;;19.63;62.24;99131.07;1756677;81;21211;-45
2022/08/29 05:11:21;;;;;;;24.63;16.48;;;;;;;19.70;61.96;99126.80;1756998;81;21523;-45
2022/08/29 05:13:48;;;;;;;27.77;16.82;;;;;;;19.79;61.79;99128.97;1756987;81;21084;-45
2022/08/29 05:16:16;;;;;;;29.65;17.45;;;;;;;19.86;61.81;99129.57;1756986;81;21088;-45
2022/08/29 05:18:45;;;;;;;24.32;16.60;;;;;;;19.94;61.42;99130.20;1757179;81;21014;-45
2022/08/29 05:21:14;;;;;;;25.52;16.32;;;;;;;20.01;61.04;99127.88;1756877;81;21185;-45
2022/08/29 05:23:41;;;;;;;24.72;16.25;;;;;;;20.09;61.05;99125.90;1739841;81;20984;-45
2022/08/29 05:26:07;;;;;;;23.38;16.45;;;;;;;20.17;60.84;99130.05;1756922;81;21460;-45
2022/08/29 05:28:35;;;;;;;27.10;16.93;;;;;;;20.21;60.58;99123.86;1749842;81;20953;-45
2022/08/29 05:31:03;;;;;;;25.75;17.10;;;;;;;20.30;60.02;99124.63;1743387;82;21096;-44
2022/08/29 05:33:30;;;;;;;23.80;16.02;;;;;;;20.34;60.08;99126.12;1743469;82;21141;-45
2022/08/29 05:35:58;;;;;;;25.05;16.02;;;;;;;20.46;60.36;99123.88;1743502;82;21007;-45
2022/08/29 05:38:25;;;;;;;25.75;16.27;;;;;;;20.59;59.77;99122.75;1743528;82;21017;-44
2022/08/29 05:40:52;;;;;;;22.32;15.55;;;;;;;20.73;59.71;99118.84;1743317;81;21026;-44
2022/08/29 05:43:19;;;;;;;26.73;17.40;;;;;;;20.81;59.04;99122.98;1743615;82;20965;-44
2022/08/29 05:45:47;;;;;;;26.20;16.32;;;;;;;20.90;58.62;99109.35;1743571;82;21239;-45
2022/08/29 05:48:16;;;;;;;26.02;17.65;;;;;;;21.00;58.93;99122.08;1743491;82;20918;-45
2022/08/29 05:50:43;;;;;;;23.03;16.53;;;;;;;21.11;58.92;99120.38;1743762;82;20973;-45
2022/08/29 05:53:12;;;;;;;23.52;15.70;;;;;;;21.21;58.28;99113.22;1743578;82;21084;-45
2022/08/29 05:55:43;;;;;;;24.75;16.45;;;;;;;21.31;58.30;99114.73;1743633;82;21552;-45
2022/08/29 05:58:11;;;;;;;26.07;15.55;;;;;;;21.41;57.98;99115.04;1743645;82;22070;-45
2022/08/29 06:00:41;;;;;;;23.77;16.23;;;;;;;21.51;57.83;99122.23;1743590;82;20962;-45
2022/08/29 06:03:09;;;;;;;;;;;;;;;21.61;57.70;99121.14;1746265;81;21014;-45
2022/08/29 06:05:37;;;;;;;25.57;15.63;;;;;;;21.72;57.00;99122.98;1743639;82;20133;-45
2022/08/29 06:08:03;;;;;;;23.25;16.07;;;;;;;21.71;56.93;99129.72;1743647;82;21010;-45
2022/08/29 06:10:32;;;;;;;28.47;15.95;;;;;;;21.82;56.99;99138.45;1743492;82;21251;-45
2022/08/29 06:13:00;;;;;;;25.25;15.80;;;;;;;21.91;56.53;99136.41;1743734;82;20990;-45
2022/08/29 06:15:28;;;;;;;20.62;15.95;;;;;;;22.02;56.74;99139.66;1743237;81;21278;-45
2022/08/29 06:17:56;;;;;;;25.62;16.15;;;;;;;22.14;56.37;99144.99;1743553;82;21049;-44
2022/08/29 06:20:23;;;;;;;20.23;15.20;;;;;;;22.26;56.08;99145.61;1743398;82;21013;-44
2022/08/29 06:22:51;;;;;;;24.85;15.80;;;;;;;22.37;55.59;99145.41;1743395;81;21079;-44
2022/08/29 06:25:19;;;;;;;21.35;15.58;;;;;;;22.48;55.01;99147.23;1743363;82;21008;-44
2022/08/29 06:27:46;;;;;;;29.02;15.58;;;;;;;22.59;54.70;99147.48;1743271;82;21038;-44
2022/08/29 06:30:14;;;;;;;26.12;15.08;;;;;;;22.69;54.50;99156.80;1743370;82;20934;-45
2022/08/29 06:32:41;;;;;;;25.97;15.68;;;;;;;22.78;54.49;99152.00;1743500;82;21069;-45
2022/08/29 06:35:09;;;;;;;27.73;14.73;;;;;;;22.87;53.60;99157.00;1743454;82;21231;-45
2022/08/29 06:37:36;;;;;;;24.85;15.30;;;;;;;22.97;53.84;99157.85;1743413;82;20982;-45
2022/08/29 06:40:04;;;;;;;20.48;15.25;;;;;;;23.07;53.26;99161.47;1743356;82;21010;-45
2022/08/29 06:42:31;;;;;;;24.70;15.43;;;;;;;23.18;53.04;99161.88;1743503;82;21097;-45
2022/08/29 06:44:58;;;;;;;26.48;15.70;;;;;;;23.30;52.97;99163.80;1743407;82;21083;-45
2022/08/29 06:47:26;;;;;;;20.35;15.60;;;;;;;23.44;52.79;99163.28;1743551;82;21088;-45
2022/08/29 06:49:53;;;;;;;27.75;15.70;;;;;;;23.55;51.65;99160.16;1743638;81;21615;-45
2022/08/29 06:52:20;;;;;;;24.80;15.63;;;;;;;23.66;51.25;99163.30;1743608;82;20933;-45
2022/08/29 06:54:47;;;;;;;21.33;15.23;;;;;;;23.76;51.15;99162.91;1743576;82;21026;-45
2022/08/29 06:57:14;;;;;;;24.47;14.83;;;;;;;23.89;51.43;99162.03;1743418;82;21298;-45
2022/08/29 06:59:42;;;;;;;22.58;15.40;;;;;;;24.04;50.60;99158.88;1743570;82;21371;-45
2022/08/29 07:02:09;;;;;;;21.55;15.00;;;;;;;24.16;50.08;99157.98;1743476;82;21009;-45
2022/08/29 07:04:36;;;;;;;25.82;15.35;;;;;;;24.29;50.32;99155.93;1743415;82;21026;-45
2022/08/29 07:07:04;;;;;;;22.15;13.45;;;;;;;24.44;49.72;99156.91;1743363;82;21065;-45
2022/08/29 07:09:31;;;;;;;19.10;13.93;;;;;;;24.60;49.25;99155.23;1743384;82;21026;-45
2022/08/29 07:11:57;;;;;;;17.92;13.93;;;;;;;24.77;49.10;99154.95;1743655;82;21079;-45
2022/08/29 07:14:25;;;;;;;19.35;13.20;;;;;;;24.94;48.48;99153.44;1743268;82;20965;-45
2022/08/29 07:16:52;;;;;;;24.92;13.40;;;;;;;25.10;47.60;99154.53;1743323;82;20982;-45
2022/08/29 07:19:19;;;;;;;18.30;13.38;;;;;;;25.26;47.51;99154.84;1743479;82;21017;-45
2022/08/29 07:21:47;;;;;;;16.32;12.35;;;;;;;25.41;47.41;99150.98;1743275;82;21027;-45
2022/08/29 07:24:15;;;;;;;16.48;13.48;;;;;;;25.58;46.55;99145.88;1743320;82;21234;-45
2022/08/29 07:26:43;;;;;;;17.65;13.25;;;;;;;25.74;46.10;99147.53;1743410;81;20934;-45
2022/08/29 07:29:17;;;;;;;22.95;12.68;;;;;;;25.87;45.54;99150.27;1750173;81;21077;-45
2022/08/29 07:31:45;;;;;;;19.32;12.75;;;;;;;26.00;45.31;99150.70;1756609;81;21582;-45
2022/08/29 07:34:12;;;;;;;18.92;13.40;;;;;;;26.15;44.87;99155.70;1756804;81;21520;-45
2022/08/29 07:36:39;;;;;;;23.22;12.85;;;;;;;26.28;44.64;99155.69;1756673;81;21135;-45
2022/08/29 07:39:10;;;;;;;20.30;13.43;;;;;;;26.42;44.38;99152.84;1756614;81;20981;-45
2022/08/29 07:41:38;;;;;;;18.90;13.20;;;;;;;26.55;43.86;99151.98;1756570;81;21029;-45
2022/08/29 07:44:05;;;;;;;16.05;12.18;;;;;;;26.69;43.92;99151.89;1756582;81;21017;-45
2022/08/29 07:46:32;;;;;;;17.30;11.38;;;;;;;26.81;43.59;99144.70;1756740;81;21001;-45
2022/08/29 07:48:59;;;;;;;20.00;11.78;;;;;;;26.97;41.75;99151.86;1756929;81;21195;-45
2022/08/29 07:51:26;;;;;;;16.23;11.65;;;;;;;27.08;41.76;99148.53;1756929;81;20913;-45
2022/08/29 07:53:54;;;;;;;15.23;11.68;;;;;;;27.18;41.06;99158.34;1756853;81;21001;-45
2022/08/29 07:56:25;;;;;;;19.57;12.05;;;;;;;27.28;42.01;99150.68;1757066;81;21625;-45
2022/08/29 07:58:52;;;;;;;16.42;11.35;;;;;;;27.41;42.60;99153.95;1756825;81;21312;-45
2022/08/29 08:01:20;;;;;;;15.08;10.68;;;;;;;27.58;42.36;99155.84;1757079;81;21203;-45
2022/08/29 08:03:47;;;;;;;13.00;9.43;;;;;;;27.74;40.56;99156.61;1757038;81;20914;-45
2022/08/29 08:06:16;;;;;;;17.12;10.28;;;;;;;27.85;39.50;99151.97;1756903;81;21016;-44
2022/08/29 08:08:42;;;;;;;12.70;10.50;;;;;;;27.95;40.02;99153.41;1757167;81;20996;-45
2022/08/29 08:11:09;;;;;;;11.80;10.38;;;;;;;28.09;39.85;99159.58;1756888;81;21515;-44
2022/08/29 08:13:37;;;;;;;14.63;10.32;;;;;;;28.22;39.89;99158.54;1756863;81;21284;-45
2022/08/29 08:16:10;;;;;;;12.80;9.35;;;;;;;28.34;38.87;99158.20;1756670;81;20929;-45
2022/08/29 08:18:38;;;;;;;12.05;9.53;;;;;;;28.45;38.97;99162.55;1756900;81;20890;-45
2022/08/29 08:21:06;;;;;;;14.63;9.80;;;;;;;28.58;37.78;99165.00;1756799;81;21045;-45
2022/08/29 08:23:33;;;;;;;13.45;9.73;;;;;;;28.68;37.08;99159.43;1756843;81;21578;-45
2022/08/29 08:26:00;;;;;;;17.48;9.68;;;;;;;28.74;37.39;99158.91;1756679;81;21125;-45
2022/08/29 08:28:29;;;;;;;13.08;9.90;;;;;;;28.83;37.18;99154.58;1755375;81;20961;-45
2022/08/29 08:30:58;;;;;;;;;;;;;;;28.89;37.30;99161.02;1737635;82;20962;-45
2022/08/29 08:33:25;;;;;;;11.75;9.43;;;;;;;28.92;37.31;99158.62;1734999;81;20167;-45
2022/08/29 08:35:52;;;;;;;14.87;10.13;;;;;;;28.90;37.87;99154.15;1734997;82;21010;-45
2022/08/29 08:38:20;;;;;;;15.03;9.63;;;;;;;29.05;37.55;99151.93;1734971;82;21140;-45
2022/08/29 08:41:05;;;;;;;13.65;9.20;;;;;;;29.22;36.57;99147.28;1734974;82;20910;-45
2022/08/29 08:43:42;;;;;;;13.93;9.45;;;;;;;29.36;37.29;99151.41;1735032;82;21058;-45
2022/08/29 08:46:09;;;;;;;14.38;9.38;;;;;;;29.48;36.16;99149.50;1730599;82;20966;-45
2022/08/29 08:48:37;;;;;;;14.85;9.53;;;;;;;29.57;36.02;99150.72;1734926;82;21285;-45
2022/08/29 08:51:15;;;;;;;12.78;9.40;;;;;;;29.65;36.16;99151.80;1735082;82;21552;-45
2022/08/29 08:53:45;;;;;;;17.02;9.48;;;;;;;29.72;35.18;99159.75;1735226;82;20986;-45
2022/08/29 08:56:17;;;;;;;10.13;8.63;;;;;;;29.76;35.70;99155.33;1735207;82;20982;-45
2022/08/29 08:58:59;;;;;;;10.15;8.48;;;;;;;29.82;34.91;99157.55;1735093;81;21045;-45
2022/08/29 09:01:39;;;;;;;12.58;8.30;;;;;;;29.87;34.62;99158.86;1735248;82;20998;-45
2022/08/29 09:04:27;;;;;;;12.58;9.00;;;;;;;29.94;34.32;99154.23;1734842;82;21320;-45
2022/08/29 09:07:25;;;;;;;16.10;9.58;;;;;;;30.00;34.38;99149.45;1735164;82;21036;-45
2022/08/29 09:10:35;;;;;;;18.85;9.25;;;;;;;30.12;35.04;99151.05;1734889;82;20930;-45
2022/08/29 09:13:23;;;;;;;10.80;8.13;;;;;;;30.27;33.55;99160.69;1734900;82;20995;-45
2022/08/29 09:15:53;;;;;;;13.40;8.53;;;;;;;30.33;33.35;99152.47;1735081;82;21081;-45
2022/08/29 09:18:34;;;;;;;13.98;7.97;;;;;;;30.40;32.85;99157.62;1735361;82;21104;-45
2022/08/29 09:21:03;;;;;;;12.90;8.90;;;;;;;30.46;32.39;99159.05;1733909;82;20969;-45
2022/08/29 09:23:44;;;;;;;10.10;8.15;;;;;;;30.51;32.78;99154.13;1735510;82;21591;-45
2022/08/29 09:26:14;;;;;;;12.35;8.05;;;;;;;30.61;33.28;99155.45;1734823;82;21598;-45
2022/08/29 09:28:41;;;;;;;10.38;7.70;;;;;;;30.73;32.12;99157.68;1714942;81;21631;-45
2022/08/29 09:31:31;;;;;;;10.08;8.23;;;;;;;30.79;31.56;99146.63;1743230;82;21266;-45
2022/08/29 09:34:06;;;;;;;12.58;8.20;;;;;;;30.86;31.57;99149.59;1743144;81;21013;-45
2022/08/29 09:36:41;;;;;;;11.83;7.25;;;;;;;30.96;31.58;99153.70;1743124;82;21036;-45
2022/08/29 09:39:24;;;;;;;12.60;7.70;;;;;;;30.98;31.56;99156.77;1743231;82;20898;-45
2022/08/29 09:42:16;;;;;;;11.95;7.60;;;;;;;31.02;31.96;99152.48;1743210;82;21055;-45
2022/08/29 09:44:56;;;;;;;11.85;7.97;;;;;;;31.10;30.97;99149.95;1728722;82;21335;-45
2022/08/29 09:47:30;;;;;;;14.83;7.97;;;;;;;31.20;31.40;99145.66;1742905;82;20992;-45
2022/08/29 09:50:12;;;;;;;12.28;7.95;;;;;;;31.32;31.18;99152.80;1743339;82;21005;-45
2022/08/29 09:52:53;;;;;;;10.32;7.42;;;;;;;31.41;31.08;99153.22;1743411;82;21515;-45
2022/08/29 09:55:43;;;;;;;11.90;7.53;;;;;;;31.44;30.69;99147.36;1743215;82;21013;-45
2022/08/29 09:58:18;;;;;;;10.75;7.80;;;;;;;31.55;30.75;99138.84;1735788;82;23114;-45
2022/08/29 10:01:10;;;;;;;11.73;7.40;;;;;;;31.71;30.69;99148.67;1743347;82;20990;-45
2022/08/29 10:03:55;;;;;;;15.88;7.47;;;;;;;31.85;30.53;99135.06;1743470;82;21022;-45
2022/08/29 10:06:27;;;;;;;9.08;6.87;;;;;;;32.02;31.02;99132.23;1743356;82;21037;-45
2022/08/29 10:08:59;;;;;;;10.38;7.03;;;;;;;32.24;30.01;99139.23;1742717;81;20978;-45
2022/08/29 10:11:59;;;;;;;8.50;6.83;;;;;;;32.38;29.76;99131.05;1743147;82;21246;-45
2022/08/29 10:14:37;;;;;;;11.63;6.87;;;;;;;32.52;28.92;99129.36;1743080;82;22159;-45
2022/08/29 10:20:08;;;;;;;12.23;7.12;;;;;;;32.64;28.54;99116.83;1742934;82;20978;-45
2022/08/29 10:22:57;;;;;;;14.78;7.12;;;;;;;32.68;29.26;99127.78;1743338;82;20978;-45
2022/08/29 10:25:34;;;;;;;11.55;6.90;;;;;;;32.55;29.09;99126.91;1738032;82;21910;-45
2022/08/29 10:28:31;;;;;;;12.33;6.55;;;;;;;32.40;29.50;99129.89;1743030;82;20921;-45
2022/08/29 10:31:25;;;;;;;12.58;6.40;;;;;;;32.39;29.36;99128.38;1736440;82;21017;-45
2022/08/29 10:34:16;;;;;;;10.40;6.47;;;;;;;32.27;29.18;99128.41;1734978;82;21575;-45
2022/08/29 10:36:47;;;;;;;12.07;6.45;;;;;;;32.12;29.21;99130.72;1734997;82;21073;-45
2022/08/29 10:39:32;;;;;;;13.22;6.30;;;;;;;32.13;29.74;99135.06;1734925;82;21214;-45
2022/08/29 10:42:10;;;;;;;10.50;6.30;;;;;;;32.21;29.47;99132.48;1734923;82;21001;-45
2022/08/29 10:45:12;;;;;;;13.55;6.12;;;;;;;32.37;29.36;99126.72;1729720;82;21073;-45
2022/08/29 10:48:00;;;;;;;11.30;6.42;;;;;;;32.57;28.78;99129.21;1735036;82;21004;-45
2022/08/29 10:50:41;;;;;;;13.45;6.50;;;;;;;32.73;29.06;99119.97;1735338;82;21049;-45
2022/08/29 10:53:23;;;;;;;9.68;5.90;;;;;;;32.90;28.50;99115.70;1734393;82;21132;-45
2022/08/29 10:56:00;;;;;;;9.95;6.20;;;;;;;33.08;28.27;99121.47;1735184;82;20986;-45
2022/08/29 10:58:57;;;;;;;9.30;6.10;;;;;;;33.16;28.50;99119.65;1735277;82;20965;-45
2022/08/29 11:01:45;;;;;;;12.03;6.08;;;;;;;33.23;28.13;99116.94;1735192;82;21030;-45
2022/08/29 11:04:20;;;;;;;10.58;6.08;;;;;;;33.26;28.18;99120.77;1710729;82;21041;-45
2022/08/29 11:06:55;;;;;;;9.55;6.10;;;;;;;33.34;28.02;99118.92;1735107;82;21244;-45
2022/08/29 11:09:30;;;;;;;10.58;5.47;;;;;;;33.44;28.33;99123.70;1735127;82;21524;-45
2022/08/29 11:12:20;;;;;;;10.72;5.75;;;;;;;33.46;27.81;99114.73;1735058;82;21631;-45
2022/08/29 11:15:07;;;;;;;9.53;6.25;;;;;;;33.31;27.69;99116.49;1718921;82;21084;-45
2022/08/29 11:17:39;;;;;;;10.48;5.50;;;;;;;33.09;28.11;99119.42;1734327;82;21080;-45
2022/08/29 11:20:17;;;;;;;16.93;6.50;;;;;;;33.03;28.59;99122.26;1734871;82;21828;-45
2022/08/29 11:22:49;;;;;;;16.70;5.62;;;;;;;33.21;28.19;99118.75;1734933;82;21564;-45
2022/08/29 11:25:18;;;;;;;10.63;5.70;;;;;;;33.33;28.15;99111.77;1734908;82;20927;-45
2022/08/29 11:28:17;;;;;;;11.48;5.62;;;;;;;33.29;28.64;99112.69;1734865;82;21657;-45
2022/08/29 11:30:50;;;;;;;10.85;5.75;;;;;;;33.11;28.26;99107.77;1726412;81;21029;-45
2022/08/29 11:33:59;;;;;;;11.93;5.47;;;;;;;32.88;28.61;99109.83;1735068;82;21076;-45
2022/08/29 11:36:45;;;;;;;;;;;;;;;32.65;29.10;99111.34;1737581;82;21000;-45
2022/08/29 11:39:21;;;;;;;9.78;5.37;;;;;;;32.36;29.30;99116.13;1734931;82;20071;-45
2022/08/29 11:41:49;;;;;;;16.07;5.78;;;;;;;32.04;29.75;99120.52;1734235;82;21017;-45
2022/08/29 11:45:12;;;;;;;12.90;5.50;;;;;;;31.87;30.38;99114.91;1773883;79;21897;-45
2022/08/29 11:47:48;;;;;;;11.38;5.55;;;;;;;31.74;30.63;99121.05;1746750;82;20947;-45
2022/08/29 11:50:20;;;;;;;13.18;5.80;;;;;;;31.69;31.01;99115.44;1746598;82;21316;-45
2022/08/29 11:53:01;;;;;;;12.23;6.00;;;;;;;31.64;30.80;99109.95;1746602;82;21018;-45